Terminal Aerodrome Forecast
Issued by NWS Sterling, VA

Current Version | Previous Version | Graphics & Text | Print | Product List | Glossary On
Versions: 1 2 3 4 5 6 7 8 9 10 11 12 13 14 15 16 17 18
732
FTUS41 KLWX 010520
TAFMRB
TAF
KMRB 010520Z 0106/0206 27012G18KT P6SM OVC060
     FM010800 27010KT P6SM SCT250
     FM011700 27015G22KT P6SM SCT045
     FM012300 27010KT P6SM SCT100
     FM020400 27006KT P6SM SCT040=

USA.gov is the U.S. government's official web portal to all federal, state and local government web resources and services.